• Join FlightAware (Why Join?)
  • Login
  • US Flag 
05:31AM EDT


 

Airport Tracker/Info


-or-


 

Live Flight TrackerFlight Track Log ✈ CTL16 ✈ 09-May-2013 ✈ KHAO - KBKL

Flight Track Log - Related Links

Times and Time Zones

All times are in EDT time to prevent confusion due to time zone crossing. See the CTL16 flight status page for this flight to view local times or setup timezone preferences in your user account.

Time Position Orientation Groundspeed Altitude Reporting Facility
EDT Latitude Longitude Course Direction KTS MPH feet Rate Location/Type
08:45PM 39.4000 -84.4500 85° East 129 148 2,600  Level Cincinnati TRACON
08:45PM 39.4003 -84.4458 85° East 130 150 3,000 900 Climbing Indianapolis Center
08:46PM 39.4267 -84.4061 49° Northeast 135 155 4,000 900 Climbing Indianapolis Center
08:47PM 39.4347 -84.3917 54° Northeast 136 157 4,300 900 Climbing Indianapolis Center
08:47PM 39.4550 -84.3667 44° Northeast 138 159 4,900 840 Climbing Indianapolis Center
08:48PM 39.4611 -84.3556 55° Northeast 136 157 5,200 960 Climbing Indianapolis Center
08:49PM 39.4825 -84.3353 36° Northeast 138 159 5,900 840 Climbing Indianapolis Center
08:49PM 39.4903 -84.3239 48° Northeast 135 155 6,100 660 Climbing Indianapolis Center
08:50PM 39.5083 -84.3008 45° Northeast 135 155 6,600 720 Climbing Indianapolis Center
08:50PM 39.5175 -84.2883 46° Northeast 136 157 6,900 300 Climbing Indianapolis Center
08:51PM 39.5411 -84.2592 44° Northeast 147 169 7,000 60 Climbing Indianapolis Center
08:52PM 39.5736 -84.2203 43° Northeast 174 200 7,100  Climbing Indianapolis Center
08:52PM 39.5842 -84.2053 48° Northeast 167 192 7,000  Descending Indianapolis Center
08:53PM 39.6153 -84.1689 42° Northeast 187 215 7,100 60 Climbing Indianapolis Center
08:53PM 39.6225 -84.1594 45° Northeast 181 208 7,100  Level Indianapolis Center
08:54PM 39.6500 -84.1272 42° Northeast 185 213 7,100  Level Indianapolis Center
08:54PM 39.6608 -84.1147 42° Northeast 184 212 7,100 -120 Level Indianapolis Center
08:55PM 39.6964 -84.0708 44° Northeast 189 217 7,000 -60 Descending Indianapolis Center
08:56PM 39.7353 -84.0272 41° Northeast 185 213 7,000  Level Indianapolis Center
08:57PM 39.7633 -83.9900 46° Northeast 181 208 7,100 60 Climbing Indianapolis Center
08:57PM 39.7764 -83.9778 36° Northeast 183 211 7,100  Level Indianapolis Center
08:58PM 39.8064 -83.9467 39° Northeast 185 213 7,100  Level Indianapolis Center
08:58PM 39.8161 -83.9333 46° Northeast 184 212 7,100  Level Indianapolis Center
08:59PM 39.8453 -83.9028 39° Northeast 187 215 7,100  Level Indianapolis Center
08:59PM 39.8553 -83.8869 51° Northeast 186 214 7,100  Level Indianapolis Center
09:00PM 39.8808 -83.8503 48° Northeast 187 215 7,100 -120 Level Indianapolis Center
09:00PM 39.8919 -83.8381 40° Northeast 186 214 7,000  Descending Indianapolis Center
09:01PM 39.9222 -83.8011 43° Northeast 189 217 7,100 60 Climbing Indianapolis Center
09:01PM 39.9308 -83.7908 42° Northeast 188 216 7,100  Level Indianapolis Center
09:02PM 39.9567 -83.7592 43° Northeast 188 216 7,100 -120 Level Indianapolis Center
09:02PM 39.9703 -83.7433 42° Northeast 189 217 7,000 -120 Descending Indianapolis Center
09:03PM 39.9978 -83.7156 38° Northeast 180 207 7,000  Level Indianapolis Center
09:03PM 40.0097 -83.6997 45° Northeast 186 214 7,000  Level Indianapolis Center
09:04PM 40.0350 -83.6656 46° Northeast 194 223 7,000  Level Indianapolis Center
09:04PM 40.0478 -83.6500 43° Northeast 188 216 7,000  Level Indianapolis Center
09:05PM 40.0786 -83.6139 42° Northeast 187 215 7,000 60 Level Indianapolis Center
09:05PM 40.0936 -83.5950 44° Northeast 189 217 7,100 60 Climbing Indianapolis Center
09:06PM 40.1156 -83.5667 45° Northeast 187 215 7,100  Level Indianapolis Center
09:06PM 40.1308 -83.5472 44° Northeast 187 215 7,100 -120 Level Indianapolis Center
09:07PM 40.1525 -83.5194 44° Northeast 187 215 7,000 -240 Descending Indianapolis Center
09:07PM 40.1683 -83.4986 45° Northeast 187 215 6,900  Descending Indianapolis Center
09:08PM 40.1939 -83.4672 43° Northeast 185 213 7,000  Climbing Indianapolis Center
09:08PM 40.2061 -83.4525 43° Northeast 185 213 6,900  Descending Indianapolis Center
09:09PM 40.2308 -83.4197 45° Northeast 182 209 7,000 60 Climbing Indianapolis Center
09:09PM 40.2439 -83.4061 39° Northeast 185 213 7,000 60 Level Indianapolis Center
09:10PM 40.2814 -83.3592 44° Northeast 184 212 7,100  Climbing Indianapolis Center
09:11PM 40.3089 -83.3253 43° Northeast 181 208 7,000  Descending Indianapolis Center
09:11PM 40.3186 -83.3136 42° Northeast 182 209 7,100 60 Climbing Indianapolis Center
09:12PM 40.3456 -83.2778 45° Northeast 184 212 7,100  Level Indianapolis Center
09:12PM 40.3558 -83.2667 39° Northeast 183 211 7,100 -120 Level Indianapolis Center
09:13PM 40.3911 -83.2189 46° Northeast 180 207 7,000 -60 Descending Indianapolis Center
09:14PM 40.4278 -83.1722 44° Northeast 181 208 7,000  Level Indianapolis Center
09:15PM 40.4625 -83.1253 46° Northeast 178 205 7,000  Level Indianapolis Center
09:16PM 40.4992 -83.0794 44° Northeast 179 206 7,000  Level Indianapolis Center
09:17PM 40.5367 -83.0328 43° Northeast 179 206 7,000  Level Indianapolis Center
09:18PM 40.5722 -82.9853 45° Northeast 180 207 7,000  Level Indianapolis Center
09:19PM 40.6064 -82.9347 48° Northeast 182 209 7,000 -60 Level Indianapolis Center
09:21PM 40.6389 -82.8836 50° Northeast 180 207 6,900  Descending Indianapolis Center
09:22PM 40.6711 -82.8331 50° Northeast 179 206 7,000  Climbing Indianapolis Center
09:23PM 40.7050 -82.7833 48° Northeast 179 206 6,900 -60 Descending Indianapolis Center
09:24PM 40.7386 -82.7314 49° Northeast 183 211 6,900 -120 Level Indianapolis Center
09:25PM 40.7758 -82.6800 46° Northeast 189 217 6,700 -300 Descending Indianapolis Center
09:27PM 40.8503 -82.5761 47° Northeast 193 222 6,100 -360 Descending Cleveland Center